Huvudsida
METAR-TAF:

METAR-TAF

Flygplatser :

Ahwaz International Airport

Ahvaz, Iran

latitud: 31-20N, longitud: 048-40E, höjd: 20 m

Aktuellt väderrapport

Denna rapport gjordes för 32 minuter sedan, klockan 11:30 UTC
Vind 8 kt från väst/nordväst
Temperatur 43°C
Fuktighet 11%
Tryck 997 hPa
Sikt 10 km eller mer
Inga moln under 1 500 m eller inga cumulonimbus

METAR: OIAW 201130Z 29008KT CAVOK 43/06 Q0997

Tid: 16:32 (12:02 UTC)

Väderprognos

Denna rapport gjordes för 1 timme och 2 minuter sedan, klockan 11:00 UTC
Prognos gäller från 20 kl. 12 UTC till 21 kl. 18 UTC
Vind 12 kt från väst/nordväst
Sikt: 6000 m
Temporärt
från 20 kl. 12 UTC till 20 kl. 18 UTC
Vind 12 kt från nordväst i byarna ända upp till 22 kt
Sikt: 5000 m
utbrett stoft
Temporärt
från 21 kl. 03 UTC till 20 kl. 9 UTC
Vind 12 kt från väst i byarna ända upp till 22 kt
Sikt: 4000 m
utbrett stoft

TAF: OIAW 201100Z 2012/2118 30012KT 6000 NSC TEMPO 2012/2018 31012G22KT 5000 DU TEMPO 2103/209 28012G22KT 4000 DU

Aktuella väderrapporter och prognoser från 4000 flygplatser (METAR- och TAF-rapporter).

De tillgängliga stationerna syns som gula och röda prickar på kartan.

För musen över prickarna för att se namnen på stationerna.

Klicka sedan för att få väderrapporter och prognoser.

För att ändra kartan: Klicka på de gröna knapparna med ett svart kors på för att zooma in; den gröna knappen med ett streck på för att zooma ut; eller på de gröna pilarna för angränsande kartor.


METAR-TAF: